sensor_id;sensor_type;location;lat;lon;timestamp;P1;durP1;ratioP1;P2;durP2;ratioP2
25279;SDS011;13225;47.804;12.116;2023-06-26T00:02:14;8.52;;;6.10;;
25279;SDS011;13225;47.804;12.116;2023-06-26T00:04:41;8.98;;;5.90;;
25279;SDS011;13225;47.804;12.116;2023-06-26T00:07:07;10.77;;;6.30;;
25279;SDS011;13225;47.804;12.116;2023-06-26T00:09:33;9.48;;;6.72;;
25279;SDS011;13225;47.804;12.116;2023-06-26T00:11:59;10.45;;;6.30;;
25279;SDS011;13225;47.804;12.116;2023-06-26T00:14:25;10.15;;;6.03;;
25279;SDS011;13225;47.804;12.116;2023-06-26T00:16:51;10.48;;;6.55;;
25279;SDS011;13225;47.804;12.116;2023-06-26T00:19:17;10.57;;;6.07;;
25279;SDS011;13225;47.804;12.116;2023-06-26T00:21:43;9.95;;;6.32;;
25279;SDS011;13225;47.804;12.116;2023-06-26T00:24:15;9.68;;;6.68;;
25279;SDS011;13225;47.804;12.116;2023-06-26T00:26:41;9.88;;;6.25;;
25279;SDS011;13225;47.804;12.116;2023-06-26T00:29:06;9.20;;;6.57;;
25279;SDS011;13225;47.804;12.116;2023-06-26T00:31:32;11.50;;;6.90;;
25279;SDS011;13225;47.804;12.116;2023-06-26T00:33:57;11.27;;;7.03;;
25279;SDS011;13225;47.804;12.116;2023-06-26T00:36:23;10.50;;;6.35;;
25279;SDS011;13225;47.804;12.116;2023-06-26T00:38:51;9.88;;;6.47;;
25279;SDS011;13225;47.804;12.116;2023-06-26T00:41:17;11.27;;;7.10;;
25279;SDS011;13225;47.804;12.116;2023-06-26T00:43:43;11.90;;;6.85;;
25279;SDS011;13225;47.804;12.116;2023-06-26T00:46:10;10.93;;;6.85;;
25279;SDS011;13225;47.804;12.116;2023-06-26T00:48:37;12.25;;;7.43;;
25279;SDS011;13225;47.804;12.116;2023-06-26T00:51:04;10.07;;;6.22;;
25279;SDS011;13225;47.804;12.116;2023-06-26T00:53:30;9.40;;;6.30;;
25279;SDS011;13225;47.804;12.116;2023-06-26T00:55:56;10.38;;;6.45;;
25279;SDS011;13225;47.804;12.116;2023-06-26T00:58:22;12.73;;;7.03;;
25279;SDS011;13225;47.804;12.116;2023-06-26T01:00:50;11.80;;;7.32;;
25279;SDS011;13225;47.804;12.116;2023-06-26T01:03:16;9.85;;;6.57;;
25279;SDS011;13225;47.804;12.116;2023-06-26T01:05:42;8.55;;;6.00;;
25279;SDS011;13225;47.804;12.116;2023-06-26T01:08:10;12.13;;;7.15;;
25279;SDS011;13225;47.804;12.116;2023-06-26T01:10:38;11.57;;;6.25;;
25279;SDS011;13225;47.804;12.116;2023-06-26T01:13:04;10.63;;;6.35;;
25279;SDS011;13225;47.804;12.116;2023-06-26T01:15:30;8.55;;;6.10;;
25279;SDS011;13225;47.804;12.116;2023-06-26T01:17:57;10.00;;;6.63;;
25279;SDS011;13225;47.804;12.116;2023-06-26T01:20:28;10.43;;;6.68;;
25279;SDS011;13225;47.804;12.116;2023-06-26T01:28:03;10.80;;;6.88;;
25279;SDS011;13225;47.804;12.116;2023-06-26T01:30:31;12.43;;;6.78;;
25279;SDS011;13225;47.804;12.116;2023-06-26T01:32:58;10.63;;;6.60;;
25279;SDS011;13225;47.804;12.116;2023-06-26T01:35:25;9.90;;;6.63;;
25279;SDS011;13225;47.804;12.116;2023-06-26T01:37:53;9.77;;;6.70;;
25279;SDS011;13225;47.804;12.116;2023-06-26T01:40:19;12.70;;;7.15;;
25279;SDS011;13225;47.804;12.116;2023-06-26T01:42:44;13.23;;;7.05;;
25279;SDS011;13225;47.804;12.116;2023-06-26T01:45:11;12.23;;;6.72;;
25279;SDS011;13225;47.804;12.116;2023-06-26T01:47:43;12.25;;;6.70;;
25279;SDS011;13225;47.804;12.116;2023-06-26T01:50:18;10.13;;;6.45;;
25279;SDS011;13225;47.804;12.116;2023-06-26T01:55:26;10.40;;;6.32;;
25279;SDS011;13225;47.804;12.116;2023-06-26T01:58:02;11.30;;;6.70;;
25279;SDS011;13225;47.804;12.116;2023-06-26T02:00:28;8.68;;;6.25;;
25279;SDS011;13225;47.804;12.116;2023-06-26T02:02:54;9.25;;;6.20;;
25279;SDS011;13225;47.804;12.116;2023-06-26T02:05:20;9.45;;;6.72;;
25279;SDS011;13225;47.804;12.116;2023-06-26T02:07:45;10.00;;;6.10;;
25279;SDS011;13225;47.804;12.116;2023-06-26T02:10:11;9.63;;;6.30;;
25279;SDS011;13225;47.804;12.116;2023-06-26T02:12:37;11.23;;;7.15;;
25279;SDS011;13225;47.804;12.116;2023-06-26T02:15:03;10.07;;;6.60;;
25279;SDS011;13225;47.804;12.116;2023-06-26T02:17:29;9.85;;;6.13;;
25279;SDS011;13225;47.804;12.116;2023-06-26T02:19:55;9.95;;;6.60;;
25279;SDS011;13225;47.804;12.116;2023-06-26T02:22:21;9.90;;;6.45;;
25279;SDS011;13225;47.804;12.116;2023-06-26T02:24:46;11.25;;;6.97;;
25279;SDS011;13225;47.804;12.116;2023-06-26T02:27:12;11.02;;;6.63;;
25279;SDS011;13225;47.804;12.116;2023-06-26T02:29:38;9.45;;;6.15;;
25279;SDS011;13225;47.804;12.116;2023-06-26T02:32:05;10.50;;;6.60;;
25279;SDS011;13225;47.804;12.116;2023-06-26T02:34:31;8.68;;;6.22;;
25279;SDS011;13225;47.804;12.116;2023-06-26T02:36:56;10.68;;;6.32;;
25279;SDS011;13225;47.804;12.116;2023-06-26T02:39:23;12.77;;;6.65;;
25279;SDS011;13225;47.804;12.116;2023-06-26T02:41:49;9.25;;;6.50;;
25279;SDS011;13225;47.804;12.116;2023-06-26T02:44:14;10.30;;;6.13;;
25279;SDS011;13225;47.804;12.116;2023-06-26T02:46:40;10.05;;;6.85;;
25279;SDS011;13225;47.804;12.116;2023-06-26T02:49:06;13.52;;;6.80;;
25279;SDS011;13225;47.804;12.116;2023-06-26T02:51:35;12.50;;;6.88;;
25279;SDS011;13225;47.804;12.116;2023-06-26T02:54:00;10.50;;;6.28;;
25279;SDS011;13225;47.804;12.116;2023-06-26T02:56:26;11.02;;;7.13;;
25279;SDS011;13225;47.804;12.116;2023-06-26T02:58:57;11.43;;;7.03;;
25279;SDS011;13225;47.804;12.116;2023-06-26T03:01:23;9.93;;;7.13;;
25279;SDS011;13225;47.804;12.116;2023-06-26T03:03:49;11.00;;;7.20;;
25279;SDS011;13225;47.804;12.116;2023-06-26T03:06:15;10.50;;;6.55;;
25279;SDS011;13225;47.804;12.116;2023-06-26T03:08:40;12.05;;;7.38;;
25279;SDS011;13225;47.804;12.116;2023-06-26T03:11:07;11.93;;;7.57;;
25279;SDS011;13225;47.804;12.116;2023-06-26T03:13:37;13.32;;;7.05;;
25279;SDS011;13225;47.804;12.116;2023-06-26T03:16:03;12.45;;;7.20;;
25279;SDS011;13225;47.804;12.116;2023-06-26T03:18:29;10.93;;;6.88;;
25279;SDS011;13225;47.804;12.116;2023-06-26T03:20:55;11.75;;;7.25;;
25279;SDS011;13225;47.804;12.116;2023-06-26T03:23:21;12.15;;;6.90;;
25279;SDS011;13225;47.804;12.116;2023-06-26T03:25:47;11.38;;;7.22;;
25279;SDS011;13225;47.804;12.116;2023-06-26T03:28:13;14.40;;;8.43;;
25279;SDS011;13225;47.804;12.116;2023-06-26T03:30:39;10.38;;;6.85;;
25279;SDS011;13225;47.804;12.116;2023-06-26T03:33:04;12.60;;;7.45;;
25279;SDS011;13225;47.804;12.116;2023-06-26T03:35:30;12.55;;;7.72;;
25279;SDS011;13225;47.804;12.116;2023-06-26T03:37:56;13.45;;;8.60;;
25279;SDS011;13225;47.804;12.116;2023-06-26T03:40:22;14.57;;;9.35;;
25279;SDS011;13225;47.804;12.116;2023-06-26T03:42:48;12.82;;;8.25;;
25279;SDS011;13225;47.804;12.116;2023-06-26T03:45:14;12.88;;;8.55;;
25279;SDS011;13225;47.804;12.116;2023-06-26T03:47:40;10.85;;;7.78;;
25279;SDS011;13225;47.804;12.116;2023-06-26T03:50:05;14.00;;;8.60;;
25279;SDS011;13225;47.804;12.116;2023-06-26T03:52:31;12.93;;;7.43;;
25279;SDS011;13225;47.804;12.116;2023-06-26T03:54:57;10.90;;;7.50;;
25279;SDS011;13225;47.804;12.116;2023-06-26T03:57:23;12.05;;;7.93;;
25279;SDS011;13225;47.804;12.116;2023-06-26T03:59:49;11.82;;;7.25;;
25279;SDS011;13225;47.804;12.116;2023-06-26T04:02:15;11.63;;;7.15;;
25279;SDS011;13225;47.804;12.116;2023-06-26T04:04:41;11.02;;;6.95;;
25279;SDS011;13225;47.804;12.116;2023-06-26T04:07:06;10.43;;;7.18;;
25279;SDS011;13225;47.804;12.116;2023-06-26T04:09:32;12.07;;;7.35;;
25279;SDS011;13225;47.804;12.116;2023-06-26T04:11:57;12.75;;;7.65;;
25279;SDS011;13225;47.804;12.116;2023-06-26T04:14:23;11.32;;;7.30;;
25279;SDS011;13225;47.804;12.116;2023-06-26T04:16:48;10.20;;;6.88;;
25279;SDS011;13225;47.804;12.116;2023-06-26T04:19:14;11.70;;;7.57;;
25279;SDS011;13225;47.804;12.116;2023-06-26T04:21:39;10.88;;;7.20;;
25279;SDS011;13225;47.804;12.116;2023-06-26T04:24:05;14.02;;;7.05;;
25279;SDS011;13225;47.804;12.116;2023-06-26T04:26:31;10.88;;;6.63;;
25279;SDS011;13225;47.804;12.116;2023-06-26T04:28:56;10.30;;;7.10;;
25279;SDS011;13225;47.804;12.116;2023-06-26T04:31:22;15.40;;;8.50;;
25279;SDS011;13225;47.804;12.116;2023-06-26T04:33:48;10.98;;;7.18;;
25279;SDS011;13225;47.804;12.116;2023-06-26T04:36:19;11.68;;;7.07;;
25279;SDS011;13225;47.804;12.116;2023-06-26T04:38:45;10.93;;;7.60;;
25279;SDS011;13225;47.804;12.116;2023-06-26T04:41:13;9.88;;;6.85;;
25279;SDS011;13225;47.804;12.116;2023-06-26T04:43:38;10.57;;;6.75;;
25279;SDS011;13225;47.804;12.116;2023-06-26T04:46:04;9.50;;;6.70;;
25279;SDS011;13225;47.804;12.116;2023-06-26T04:48:30;9.90;;;6.35;;
25279;SDS011;13225;47.804;12.116;2023-06-26T04:50:56;10.88;;;6.80;;
25279;SDS011;13225;47.804;12.116;2023-06-26T04:53:23;9.55;;;6.55;;
25279;SDS011;13225;47.804;12.116;2023-06-26T04:55:49;9.77;;;7.15;;
25279;SDS011;13225;47.804;12.116;2023-06-26T04:58:16;11.15;;;6.82;;
25279;SDS011;13225;47.804;12.116;2023-06-26T05:00:41;12.48;;;7.43;;
25279;SDS011;13225;47.804;12.116;2023-06-26T05:03:07;10.82;;;7.38;;
25279;SDS011;13225;47.804;12.116;2023-06-26T05:05:34;12.80;;;6.88;;
25279;SDS011;13225;47.804;12.116;2023-06-26T05:08:09;12.15;;;7.22;;
25279;SDS011;13225;47.804;12.116;2023-06-26T05:10:39;11.18;;;7.50;;
25279;SDS011;13225;47.804;12.116;2023-06-26T05:13:05;9.10;;;6.43;;
25279;SDS011;13225;47.804;12.116;2023-06-26T05:15:30;11.38;;;7.40;;
25279;SDS011;13225;47.804;12.116;2023-06-26T05:17:56;9.45;;;6.57;;
25279;SDS011;13225;47.804;12.116;2023-06-26T05:20:21;11.82;;;7.22;;
25279;SDS011;13225;47.804;12.116;2023-06-26T05:22:47;12.35;;;7.30;;
25279;SDS011;13225;47.804;12.116;2023-06-26T05:25:13;13.35;;;7.53;;
25279;SDS011;13225;47.804;12.116;2023-06-26T05:27:39;11.43;;;7.60;;
25279;SDS011;13225;47.804;12.116;2023-06-26T05:30:05;11.90;;;7.60;;
25279;SDS011;13225;47.804;12.116;2023-06-26T05:32:32;12.32;;;7.78;;
25279;SDS011;13225;47.804;12.116;2023-06-26T05:35:00;14.93;;;7.57;;
25279;SDS011;13225;47.804;12.116;2023-06-26T05:37:28;11.50;;;7.45;;
25279;SDS011;13225;47.804;12.116;2023-06-26T05:39:55;11.63;;;7.53;;
25279;SDS011;13225;47.804;12.116;2023-06-26T05:42:21;13.10;;;7.97;;
25279;SDS011;13225;47.804;12.116;2023-06-26T05:44:47;10.85;;;6.97;;
25279;SDS011;13225;47.804;12.116;2023-06-26T05:47:12;13.10;;;7.43;;
25279;SDS011;13225;47.804;12.116;2023-06-26T05:49:38;11.27;;;7.15;;
25279;SDS011;13225;47.804;12.116;2023-06-26T05:52:04;13.20;;;7.00;;
25279;SDS011;13225;47.804;12.116;2023-06-26T05:54:30;11.02;;;7.07;;
25279;SDS011;13225;47.804;12.116;2023-06-26T05:56:56;11.55;;;7.50;;
25279;SDS011;13225;47.804;12.116;2023-06-26T05:59:24;11.07;;;6.82;;
25279;SDS011;13225;47.804;12.116;2023-06-26T06:01:51;12.27;;;7.88;;
25279;SDS011;13225;47.804;12.116;2023-06-26T06:04:17;11.73;;;7.00;;
25279;SDS011;13225;47.804;12.116;2023-06-26T06:06:42;11.52;;;7.10;;
25279;SDS011;13225;47.804;12.116;2023-06-26T06:09:08;13.57;;;7.13;;
25279;SDS011;13225;47.804;12.116;2023-06-26T06:11:34;13.68;;;7.50;;
25279;SDS011;13225;47.804;12.116;2023-06-26T06:13:59;10.23;;;7.18;;
25279;SDS011;13225;47.804;12.116;2023-06-26T06:16:25;10.25;;;7.30;;
25279;SDS011;13225;47.804;12.116;2023-06-26T06:18:51;10.48;;;7.30;;
25279;SDS011;13225;47.804;12.116;2023-06-26T06:21:16;10.48;;;7.07;;
25279;SDS011;13225;47.804;12.116;2023-06-26T06:23:42;13.35;;;8.23;;
25279;SDS011;13225;47.804;12.116;2023-06-26T06:26:08;11.38;;;7.40;;
25279;SDS011;13225;47.804;12.116;2023-06-26T06:28:33;12.10;;;7.70;;
25279;SDS011;13225;47.804;12.116;2023-06-26T06:30:59;10.73;;;7.20;;
25279;SDS011;13225;47.804;12.116;2023-06-26T06:33:24;11.57;;;6.88;;
25279;SDS011;13225;47.804;12.116;2023-06-26T06:35:50;11.55;;;7.10;;
25279;SDS011;13225;47.804;12.116;2023-06-26T06:38:15;11.32;;;6.45;;
25279;SDS011;13225;47.804;12.116;2023-06-26T06:40:41;11.80;;;7.25;;
25279;SDS011;13225;47.804;12.116;2023-06-26T06:43:06;10.38;;;6.80;;
25279;SDS011;13225;47.804;12.116;2023-06-26T06:45:32;10.70;;;7.25;;
25279;SDS011;13225;47.804;12.116;2023-06-26T06:47:58;9.80;;;7.07;;
25279;SDS011;13225;47.804;12.116;2023-06-26T06:50:23;11.55;;;7.28;;
25279;SDS011;13225;47.804;12.116;2023-06-26T06:52:49;12.20;;;6.72;;
25279;SDS011;13225;47.804;12.116;2023-06-26T06:55:14;11.25;;;7.05;;
25279;SDS011;13225;47.804;12.116;2023-06-26T06:57:40;10.30;;;7.00;;
25279;SDS011;13225;47.804;12.116;2023-06-26T07:00:10;10.82;;;7.55;;
25279;SDS011;13225;47.804;12.116;2023-06-26T07:02:37;10.20;;;6.93;;
25279;SDS011;13225;47.804;12.116;2023-06-26T07:05:03;13.00;;;7.30;;
25279;SDS011;13225;47.804;12.116;2023-06-26T07:07:30;13.18;;;7.43;;
25279;SDS011;13225;47.804;12.116;2023-06-26T07:10:00;12.68;;;7.40;;
25279;SDS011;13225;47.804;12.116;2023-06-26T07:12:27;10.25;;;6.88;;
25279;SDS011;13225;47.804;12.116;2023-06-26T07:14:53;11.68;;;7.60;;
25279;SDS011;13225;47.804;12.116;2023-06-26T07:17:19;11.85;;;7.47;;
25279;SDS011;13225;47.804;12.116;2023-06-26T07:19:46;11.23;;;7.47;;
25279;SDS011;13225;47.804;12.116;2023-06-26T07:22:12;13.57;;;7.50;;
25279;SDS011;13225;47.804;12.116;2023-06-26T07:24:37;10.52;;;7.57;;
25279;SDS011;13225;47.804;12.116;2023-06-26T07:27:03;10.60;;;7.60;;
25279;SDS011;13225;47.804;12.116;2023-06-26T07:29:29;9.40;;;7.20;;
25279;SDS011;13225;47.804;12.116;2023-06-26T07:31:54;11.10;;;7.57;;
25279;SDS011;13225;47.804;12.116;2023-06-26T07:34:20;10.07;;;7.07;;
25279;SDS011;13225;47.804;12.116;2023-06-26T07:36:46;10.55;;;7.53;;
25279;SDS011;13225;47.804;12.116;2023-06-26T07:39:11;10.77;;;7.18;;
25279;SDS011;13225;47.804;12.116;2023-06-26T07:41:37;10.80;;;6.95;;
25279;SDS011;13225;47.804;12.116;2023-06-26T07:44:02;12.55;;;7.55;;
25279;SDS011;13225;47.804;12.116;2023-06-26T07:46:28;20.80;;;8.43;;
25279;SDS011;13225;47.804;12.116;2023-06-26T07:48:54;11.00;;;7.10;;
25279;SDS011;13225;47.804;12.116;2023-06-26T07:51:19;10.38;;;7.03;;
25279;SDS011;13225;47.804;12.116;2023-06-26T07:53:45;9.27;;;6.68;;
25279;SDS011;13225;47.804;12.116;2023-06-26T07:56:11;11.93;;;7.15;;
25279;SDS011;13225;47.804;12.116;2023-06-26T07:58:37;12.98;;;7.97;;
25279;SDS011;13225;47.804;12.116;2023-06-26T08:01:02;10.15;;;6.95;;
25279;SDS011;13225;47.804;12.116;2023-06-26T08:03:28;9.35;;;6.82;;
25279;SDS011;13225;47.804;12.116;2023-06-26T08:05:53;10.18;;;6.95;;
25279;SDS011;13225;47.804;12.116;2023-06-26T08:08:19;9.63;;;7.25;;
25279;SDS011;13225;47.804;12.116;2023-06-26T08:10:45;9.45;;;7.10;;
25279;SDS011;13225;47.804;12.116;2023-06-26T08:13:10;13.30;;;6.63;;
25279;SDS011;13225;47.804;12.116;2023-06-26T08:15:36;8.90;;;6.82;;
25279;SDS011;13225;47.804;12.116;2023-06-26T08:18:01;9.57;;;6.50;;
25279;SDS011;13225;47.804;12.116;2023-06-26T08:20:27;13.43;;;7.55;;
25279;SDS011;13225;47.804;12.116;2023-06-26T08:22:53;8.65;;;6.47;;
25279;SDS011;13225;47.804;12.116;2023-06-26T08:25:19;8.68;;;6.50;;
25279;SDS011;13225;47.804;12.116;2023-06-26T08:27:45;8.38;;;6.55;;
25279;SDS011;13225;47.804;12.116;2023-06-26T08:30:11;9.10;;;6.72;;
25279;SDS011;13225;47.804;12.116;2023-06-26T08:32:38;8.63;;;6.30;;
25279;SDS011;13225;47.804;12.116;2023-06-26T08:35:04;9.45;;;7.00;;
25279;SDS011;13225;47.804;12.116;2023-06-26T08:37:31;7.65;;;6.20;;
25279;SDS011;13225;47.804;12.116;2023-06-26T08:39:57;10.25;;;7.10;;
25279;SDS011;13225;47.804;12.116;2023-06-26T08:42:26;9.20;;;6.70;;
25279;SDS011;13225;47.804;12.116;2023-06-26T08:44:51;9.93;;;6.90;;
25279;SDS011;13225;47.804;12.116;2023-06-26T08:47:17;9.35;;;7.53;;
25279;SDS011;13225;47.804;12.116;2023-06-26T08:49:50;11.02;;;6.88;;
25279;SDS011;13225;47.804;12.116;2023-06-26T08:52:24;9.70;;;6.30;;
25279;SDS011;13225;47.804;12.116;2023-06-26T08:54:57;10.18;;;6.47;;
25279;SDS011;13225;47.804;12.116;2023-06-26T08:57:24;9.57;;;6.55;;
25279;SDS011;13225;47.804;12.116;2023-06-26T08:59:52;8.80;;;6.75;;
25279;SDS011;13225;47.804;12.116;2023-06-26T09:02:18;9.75;;;6.80;;
25279;SDS011;13225;47.804;12.116;2023-06-26T09:04:46;11.32;;;7.00;;
25279;SDS011;13225;47.804;12.116;2023-06-26T09:07:13;10.30;;;6.55;;
25279;SDS011;13225;47.804;12.116;2023-06-26T09:09:38;8.75;;;6.65;;
25279;SDS011;13225;47.804;12.116;2023-06-26T09:12:04;8.02;;;6.15;;
25279;SDS011;13225;47.804;12.116;2023-06-26T09:14:30;7.70;;;6.30;;
25279;SDS011;13225;47.804;12.116;2023-06-26T09:16:55;7.60;;;6.30;;
25279;SDS011;13225;47.804;12.116;2023-06-26T09:19:21;8.48;;;6.30;;
25279;SDS011;13225;47.804;12.116;2023-06-26T09:21:49;8.15;;;6.03;;
25279;SDS011;13225;47.804;12.116;2023-06-26T09:24:16;10.00;;;6.18;;
25279;SDS011;13225;47.804;12.116;2023-06-26T09:26:42;8.30;;;6.45;;
25279;SDS011;13225;47.804;12.116;2023-06-26T09:29:08;7.22;;;6.18;;
25279;SDS011;13225;47.804;12.116;2023-06-26T09:31:38;7.80;;;6.03;;
25279;SDS011;13225;47.804;12.116;2023-06-26T09:34:04;8.48;;;6.43;;
25279;SDS011;13225;47.804;12.116;2023-06-26T09:36:30;9.38;;;6.43;;
25279;SDS011;13225;47.804;12.116;2023-06-26T09:39:04;8.48;;;6.82;;
25279;SDS011;13225;47.804;12.116;2023-06-26T09:41:37;8.02;;;6.40;;
25279;SDS011;13225;47.804;12.116;2023-06-26T09:44:05;8.38;;;6.32;;
25279;SDS011;13225;47.804;12.116;2023-06-26T09:46:32;12.63;;;7.43;;
25279;SDS011;13225;47.804;12.116;2023-06-26T09:49:00;11.75;;;8.00;;
25279;SDS011;13225;47.804;12.116;2023-06-26T09:51:30;7.53;;;6.45;;
25279;SDS011;13225;47.804;12.116;2023-06-26T09:53:57;8.90;;;6.47;;
25279;SDS011;13225;47.804;12.116;2023-06-26T09:56:24;10.75;;;6.32;;
25279;SDS011;13225;47.804;12.116;2023-06-26T09:58:49;7.65;;;6.07;;
25279;SDS011;13225;47.804;12.116;2023-06-26T10:01:15;6.75;;;5.70;;
25279;SDS011;13225;47.804;12.116;2023-06-26T10:03:42;8.25;;;5.60;;
25279;SDS011;13225;47.804;12.116;2023-06-26T10:06:09;8.15;;;5.80;;
25279;SDS011;13225;47.804;12.116;2023-06-26T10:08:36;6.28;;;5.40;;
25279;SDS011;13225;47.804;12.116;2023-06-26T10:11:03;6.80;;;5.00;;
25279;SDS011;13225;47.804;12.116;2023-06-26T10:13:30;6.78;;;5.60;;
25279;SDS011;13225;47.804;12.116;2023-06-26T10:15:59;7.72;;;5.00;;
25279;SDS011;13225;47.804;12.116;2023-06-26T10:18:26;6.07;;;5.03;;
25279;SDS011;13225;47.804;12.116;2023-06-26T10:20:53;6.22;;;5.05;;
25279;SDS011;13225;47.804;12.116;2023-06-26T10:23:22;6.95;;;5.15;;
25279;SDS011;13225;47.804;12.116;2023-06-26T10:25:51;7.85;;;5.30;;
25279;SDS011;13225;47.804;12.116;2023-06-26T10:28:17;6.00;;;4.88;;
25279;SDS011;13225;47.804;12.116;2023-06-26T10:30:45;5.60;;;4.72;;
25279;SDS011;13225;47.804;12.116;2023-06-26T10:33:12;4.95;;;4.45;;
25279;SDS011;13225;47.804;12.116;2023-06-26T10:35:44;5.20;;;4.68;;
25279;SDS011;13225;47.804;12.116;2023-06-26T10:38:10;5.20;;;4.70;;
25279;SDS011;13225;47.804;12.116;2023-06-26T10:40:40;5.80;;;4.60;;
25279;SDS011;13225;47.804;12.116;2023-06-26T10:43:07;5.90;;;4.57;;
25279;SDS011;13225;47.804;12.116;2023-06-26T10:45:34;5.22;;;4.32;;
25279;SDS011;13225;47.804;12.116;2023-06-26T10:48:00;4.97;;;4.47;;
25279;SDS011;13225;47.804;12.116;2023-06-26T10:53:08;6.82;;;4.40;;
25279;SDS011;13225;47.804;12.116;2023-06-26T10:55:59;4.72;;;4.10;;
25279;SDS011;13225;47.804;12.116;2023-06-26T11:01:13;5.68;;;3.95;;
25279;SDS011;13225;47.804;12.116;2023-06-26T11:03:44;5.20;;;4.70;;
25279;SDS011;13225;47.804;12.116;2023-06-26T11:06:13;4.90;;;4.40;;
25279;SDS011;13225;47.804;12.116;2023-06-26T11:11:22;5.97;;;4.40;;
25279;SDS011;13225;47.804;12.116;2023-06-26T11:14:23;5.50;;;3.90;;
25279;SDS011;13225;47.804;12.116;2023-06-26T11:16:50;7.18;;;4.47;;
25279;SDS011;13225;47.804;12.116;2023-06-26T11:19:17;5.90;;;4.30;;
25279;SDS011;13225;47.804;12.116;2023-06-26T11:21:43;5.43;;;4.18;;
25279;SDS011;13225;47.804;12.116;2023-06-26T11:24:09;6.20;;;4.07;;
25279;SDS011;13225;47.804;12.116;2023-06-26T11:26:39;4.72;;;3.95;;
25279;SDS011;13225;47.804;12.116;2023-06-26T11:29:06;4.20;;;3.80;;
25279;SDS011;13225;47.804;12.116;2023-06-26T11:31:33;4.28;;;3.75;;
25279;SDS011;13225;47.804;12.116;2023-06-26T11:34:07;6.03;;;3.83;;
25279;SDS011;13225;47.804;12.116;2023-06-26T11:36:35;4.30;;;3.90;;
25279;SDS011;13225;47.804;12.116;2023-06-26T11:39:02;4.60;;;4.20;;
25279;SDS011;13225;47.804;12.116;2023-06-26T11:41:33;3.78;;;3.47;;
25279;SDS011;13225;47.804;12.116;2023-06-26T11:44:04;5.47;;;4.25;;
25279;SDS011;13225;47.804;12.116;2023-06-26T11:46:31;5.38;;;3.42;;
25279;SDS011;13225;47.804;12.116;2023-06-26T11:48:58;5.03;;;4.53;;
25279;SDS011;13225;47.804;12.116;2023-06-26T11:51:26;4.85;;;4.03;;
25279;SDS011;13225;47.804;12.116;2023-06-26T11:53:52;4.38;;;3.97;;
25279;SDS011;13225;47.804;12.116;2023-06-26T11:56:18;5.47;;;3.50;;
25279;SDS011;13225;47.804;12.116;2023-06-26T12:01:35;4.07;;;3.67;;
25279;SDS011;13225;47.804;12.116;2023-06-26T12:04:07;4.72;;;3.83;;
25279;SDS011;13225;47.804;12.116;2023-06-26T12:06:35;6.70;;;3.67;;
25279;SDS011;13225;47.804;12.116;2023-06-26T12:09:06;4.18;;;3.78;;
25279;SDS011;13225;47.804;12.116;2023-06-26T12:11:34;10.13;;;4.28;;
25279;SDS011;13225;47.804;12.116;2023-06-26T12:14:01;6.13;;;3.60;;
25279;SDS011;13225;47.804;12.116;2023-06-26T12:16:28;5.43;;;3.72;;
25279;SDS011;13225;47.804;12.116;2023-06-26T12:19:01;4.50;;;4.03;;
25279;SDS011;13225;47.804;12.116;2023-06-26T12:24:03;4.30;;;3.90;;
25279;SDS011;13225;47.804;12.116;2023-06-26T12:26:29;4.60;;;3.97;;
25279;SDS011;13225;47.804;12.116;2023-06-26T12:29:02;6.70;;;4.03;;
25279;SDS011;13225;47.804;12.116;2023-06-26T12:31:29;4.10;;;3.72;;
25279;SDS011;13225;47.804;12.116;2023-06-26T12:33:55;5.13;;;3.60;;
25279;SDS011;13225;47.804;12.116;2023-06-26T12:36:21;4.30;;;3.80;;
25279;SDS011;13225;47.804;12.116;2023-06-26T12:38:48;4.22;;;3.83;;
25279;SDS011;13225;47.804;12.116;2023-06-26T12:41:14;4.78;;;4.20;;
25279;SDS011;13225;47.804;12.116;2023-06-26T12:43:42;4.63;;;4.05;;
25279;SDS011;13225;47.804;12.116;2023-06-26T12:46:08;4.22;;;3.80;;
25279;SDS011;13225;47.804;12.116;2023-06-26T12:51:10;5.63;;;4.18;;
25279;SDS011;13225;47.804;12.116;2023-06-26T12:53:36;4.35;;;3.95;;
25279;SDS011;13225;47.804;12.116;2023-06-26T12:56:04;4.88;;;3.85;;
25279;SDS011;13225;47.804;12.116;2023-06-26T12:58:31;4.63;;;4.03;;
25279;SDS011;13225;47.804;12.116;2023-06-26T13:00:56;5.07;;;4.32;;
25279;SDS011;13225;47.804;12.116;2023-06-26T13:03:22;4.68;;;4.28;;
25279;SDS011;13225;47.804;12.116;2023-06-26T13:05:48;4.40;;;4.00;;
25279;SDS011;13225;47.804;12.116;2023-06-26T13:08:14;6.13;;;4.07;;
25279;SDS011;13225;47.804;12.116;2023-06-26T13:10:42;4.80;;;4.30;;
25279;SDS011;13225;47.804;12.116;2023-06-26T13:13:08;4.50;;;4.05;;
25279;SDS011;13225;47.804;12.116;2023-06-26T13:15:35;4.90;;;4.30;;
25279;SDS011;13225;47.804;12.116;2023-06-26T13:18:00;4.78;;;4.32;;
25279;SDS011;13225;47.804;12.116;2023-06-26T13:20:26;5.03;;;4.53;;
25279;SDS011;13225;47.804;12.116;2023-06-26T13:22:52;4.88;;;4.20;;
25279;SDS011;13225;47.804;12.116;2023-06-26T13:25:19;4.85;;;4.32;;
25279;SDS011;13225;47.804;12.116;2023-06-26T13:27:45;4.75;;;4.28;;
25279;SDS011;13225;47.804;12.116;2023-06-26T13:30:11;5.18;;;4.68;;
25279;SDS011;13225;47.804;12.116;2023-06-26T13:32:37;6.15;;;4.63;;
25279;SDS011;13225;47.804;12.116;2023-06-26T13:35:02;5.05;;;4.55;;
25279;SDS011;13225;47.804;12.116;2023-06-26T13:37:29;4.78;;;4.15;;
25279;SDS011;13225;47.804;12.116;2023-06-26T13:39:54;6.38;;;4.45;;
25279;SDS011;13225;47.804;12.116;2023-06-26T13:42:20;5.50;;;4.40;;
25279;SDS011;13225;47.804;12.116;2023-06-26T13:44:46;4.90;;;4.50;;
25279;SDS011;13225;47.804;12.116;2023-06-26T13:47:12;5.72;;;4.20;;
25279;SDS011;13225;47.804;12.116;2023-06-26T13:49:39;5.07;;;4.47;;
25279;SDS011;13225;47.804;12.116;2023-06-26T13:52:05;5.25;;;4.75;;
25279;SDS011;13225;47.804;12.116;2023-06-26T13:54:34;4.93;;;4.50;;
25279;SDS011;13225;47.804;12.116;2023-06-26T13:57:01;4.80;;;4.35;;
25279;SDS011;13225;47.804;12.116;2023-06-26T13:59:27;4.70;;;4.30;;
25279;SDS011;13225;47.804;12.116;2023-06-26T14:01:53;5.20;;;4.57;;
25279;SDS011;13225;47.804;12.116;2023-06-26T14:04:19;6.15;;;4.90;;
25279;SDS011;13225;47.804;12.116;2023-06-26T14:06:46;5.00;;;4.60;;
25279;SDS011;13225;47.804;12.116;2023-06-26T14:09:11;5.05;;;4.50;;
25279;SDS011;13225;47.804;12.116;2023-06-26T14:11:37;4.85;;;4.25;;
25279;SDS011;13225;47.804;12.116;2023-06-26T14:14:03;4.88;;;4.30;;
25279;SDS011;13225;47.804;12.116;2023-06-26T14:16:29;4.93;;;4.45;;
25279;SDS011;13225;47.804;12.116;2023-06-26T14:18:55;5.55;;;4.53;;
25279;SDS011;13225;47.804;12.116;2023-06-26T14:21:21;5.78;;;5.18;;
25279;SDS011;13225;47.804;12.116;2023-06-26T14:23:46;5.68;;;4.80;;
25279;SDS011;13225;47.804;12.116;2023-06-26T14:26:12;5.65;;;5.13;;
25279;SDS011;13225;47.804;12.116;2023-06-26T14:28:38;5.70;;;5.10;;
25279;SDS011;13225;47.804;12.116;2023-06-26T14:31:04;8.10;;;5.30;;
25279;SDS011;13225;47.804;12.116;2023-06-26T14:33:30;6.63;;;4.75;;
25279;SDS011;13225;47.804;12.116;2023-06-26T14:35:56;8.27;;;4.50;;
25279;SDS011;13225;47.804;12.116;2023-06-26T14:38:21;5.72;;;5.13;;
25279;SDS011;13225;47.804;12.116;2023-06-26T14:40:47;7.03;;;5.30;;
25279;SDS011;13225;47.804;12.116;2023-06-26T14:43:12;6.53;;;5.65;;
25279;SDS011;13225;47.804;12.116;2023-06-26T14:45:38;5.18;;;4.68;;
25279;SDS011;13225;47.804;12.116;2023-06-26T14:48:03;5.88;;;5.15;;
25279;SDS011;13225;47.804;12.116;2023-06-26T14:50:29;7.22;;;5.70;;